AIJ3110 MMMX-MMRX
Flight info
| Callsign | AIJ3110 |
|---|---|
| Flight time | 1h 7m |
| Altitude | 33000 |
| Route | IKLAN3B IKLAN UT139 ONGOB UJ35 URVUT/N0432F320 UJ53 REX |
| Aircraft | A320/M-SDE3FGHIRWY/LB1 |
Departure
| Time | 2026-05-08 21:01 |
|---|---|
| Airport | Mexico City Benito Juárez International Airport (MMMX) |
Arrival
| Time | 2026-05-08 22:08 |
|---|---|
| Airport | General Lucio Blanco International Airport (MMRX) |
| Time | Latitude | Longitude | Altitude | Speed | Heading |
|---|---|---|---|---|---|
| 2026-05-08 20:10 | 19.43372 | -99.08387 | 7303 ft | 0 kts | 328° |
| 2026-05-08 20:40 | 19.43370 | -99.08386 | 7303 ft | 3 kts | 329° |
| 2026-05-08 20:40 | 19.43347 | -99.08372 | 7303 ft | 4 kts | 335° |
| 2026-05-08 20:40 | 19.43321 | -99.08362 | 7303 ft | 4 kts | 345° |
| 2026-05-08 20:41 | 19.43295 | -99.08357 | 7303 ft | 4 kts | 6° |
| 2026-05-08 20:41 | 19.43274 | -99.08366 | 7303 ft | 2 kts | 58° |
| 2026-05-08 20:41 | 19.43273 | -99.08367 | 7303 ft | 0 kts | 59° |
| 2026-05-08 20:45 | 19.43276 | -99.08363 | 7303 ft | 2 kts | 59° |
| 2026-05-08 20:45 | 19.43288 | -99.08340 | 7303 ft | 5 kts | 59° |
| 2026-05-08 20:46 | 19.43311 | -99.08299 | 7303 ft | 8 kts | 59° |
| 2026-05-08 20:46 | 19.43343 | -99.08242 | 7303 ft | 10 kts | 59° |
| 2026-05-08 20:46 | 19.43384 | -99.08170 | 7303 ft | 13 kts | 59° |
| 2026-05-08 20:46 | 19.43431 | -99.08084 | 7303 ft | 14 kts | 59° |
| 2026-05-08 20:47 | 19.43478 | -99.08000 | 7303 ft | 13 kts | 59° |
| 2026-05-08 20:47 | 19.43520 | -99.07925 | 7303 ft | 11 kts | 59° |
| 2026-05-08 20:47 | 19.43560 | -99.07855 | 7303 ft | 11 kts | 58° |
| 2026-05-08 20:47 | 19.43605 | -99.07780 | 7303 ft | 13 kts | 57° |
| 2026-05-08 20:48 | 19.43647 | -99.07709 | 7303 ft | 10 kts | 59° |
| 2026-05-08 20:48 | 19.43677 | -99.07654 | 7303 ft | 8 kts | 59° |
| 2026-05-08 20:48 | 19.43704 | -99.07606 | 7303 ft | 8 kts | 60° |
| 2026-05-08 20:48 | 19.43733 | -99.07550 | 7303 ft | 9 kts | 61° |
| 2026-05-08 20:49 | 19.43767 | -99.07485 | 7303 ft | 11 kts | 60° |
| 2026-05-08 20:49 | 19.43809 | -99.07410 | 7303 ft | 13 kts | 59° |
| 2026-05-08 20:49 | 19.43857 | -99.07324 | 7303 ft | 14 kts | 59° |
| 2026-05-08 20:49 | 19.43911 | -99.07228 | 7303 ft | 16 kts | 58° |
| 2026-05-08 20:50 | 19.43973 | -99.07124 | 7303 ft | 17 kts | 58° |
| 2026-05-08 20:50 | 19.44035 | -99.07013 | 7303 ft | 18 kts | 59° |
| 2026-05-08 20:50 | 19.44098 | -99.06901 | 7303 ft | 18 kts | 60° |
| 2026-05-08 20:50 | 19.44160 | -99.06789 | 7303 ft | 16 kts | 59° |
| 2026-05-08 20:51 | 19.44219 | -99.06684 | 7303 ft | 17 kts | 59° |
| 2026-05-08 20:51 | 19.44280 | -99.06577 | 7303 ft | 17 kts | 59° |
| 2026-05-08 20:51 | 19.44342 | -99.06469 | 7303 ft | 17 kts | 58° |
| 2026-05-08 20:51 | 19.44401 | -99.06364 | 7303 ft | 12 kts | 60° |
| 2026-05-08 20:52 | 19.44459 | -99.06383 | 7303 ft | 11 kts | 286° |
| 2026-05-08 20:52 | 19.44433 | -99.06452 | 7303 ft | 9 kts | 239° |
| 2026-05-08 20:52 | 19.44405 | -99.06502 | 7303 ft | 7 kts | 239° |
| 2026-05-08 20:52 | 19.44384 | -99.06539 | 7303 ft | 5 kts | 239° |
| 2026-05-08 20:53 | 19.44365 | -99.06573 | 7303 ft | 7 kts | 239° |
| 2026-05-08 20:53 | 19.44328 | -99.06636 | 7303 ft | 13 kts | 239° |
| 2026-05-08 20:53 | 19.44275 | -99.06729 | 7303 ft | 14 kts | 235° |
| 2026-05-08 20:53 | 19.44179 | -99.06762 | 7303 ft | 17 kts | 215° |
| 2026-05-08 20:54 | 19.44111 | -99.06876 | 7303 ft | 19 kts | 239° |
| 2026-05-08 20:54 | 19.44042 | -99.06999 | 7303 ft | 20 kts | 239° |
| 2026-05-08 20:54 | 19.43972 | -99.07125 | 7303 ft | 20 kts | 239° |
| 2026-05-08 20:54 | 19.43901 | -99.07251 | 7303 ft | 20 kts | 239° |
| 2026-05-08 20:55 | 19.43834 | -99.07370 | 7303 ft | 19 kts | 239° |
| 2026-05-08 20:55 | 19.43765 | -99.07493 | 7303 ft | 20 kts | 239° |
| 2026-05-08 20:55 | 19.43718 | -99.07576 | 7303 ft | 20 kts | 239° |
| 2026-05-08 20:55 | 19.43626 | -99.07739 | 7303 ft | 19 kts | 240° |
| 2026-05-08 20:56 | 19.43562 | -99.07853 | 7303 ft | 17 kts | 239° |
| 2026-05-08 20:56 | 19.43500 | -99.07964 | 7303 ft | 18 kts | 239° |
| 2026-05-08 20:56 | 19.43436 | -99.08079 | 7303 ft | 18 kts | 239° |
| 2026-05-08 20:56 | 19.43373 | -99.08191 | 7303 ft | 18 kts | 239° |
| 2026-05-08 20:57 | 19.43311 | -99.08302 | 7303 ft | 17 kts | 239° |
| 2026-05-08 20:57 | 19.43250 | -99.08410 | 7303 ft | 17 kts | 239° |
| 2026-05-08 20:57 | 19.43189 | -99.08517 | 7303 ft | 17 kts | 239° |
| 2026-05-08 20:57 | 19.43129 | -99.08625 | 7303 ft | 17 kts | 239° |
| 2026-05-08 20:58 | 19.43070 | -99.08731 | 7303 ft | 17 kts | 239° |
| 2026-05-08 20:58 | 19.43013 | -99.08832 | 7303 ft | 16 kts | 239° |
| 2026-05-08 20:58 | 19.42959 | -99.08929 | 7303 ft | 15 kts | 239° |
| 2026-05-08 20:58 | 19.42906 | -99.09014 | 7303 ft | 13 kts | 228° |
| 2026-05-08 20:59 | 19.42836 | -99.09059 | 7303 ft | 11 kts | 206° |
| 2026-05-08 20:59 | 19.42780 | -99.09088 | 7303 ft | 7 kts | 201° |
| 2026-05-08 20:59 | 19.42754 | -99.09072 | 7303 ft | 5 kts | 109° |
| 2026-05-08 20:59 | 19.42766 | -99.09039 | 7303 ft | 9 kts | 67° |
| 2026-05-08 21:00 | 19.42776 | -99.09020 | 7303 ft | 0 kts | 59° |
| 2026-05-08 21:00 | 19.42810 | -99.08958 | 7303 ft | 39 kts | 59° |
| 2026-05-08 21:00 | 19.43095 | -99.08455 | 7302 ft | 118 kts | 59° |
| 2026-05-08 21:00 | 19.43630 | -99.07505 | 7326 ft | 179 kts | 57° |
| 2026-05-08 21:01 | 19.44301 | -99.06332 | 7940 ft | 192 kts | 57° |
| 2026-05-08 21:01 | 19.44990 | -99.05115 | 8882 ft | 191 kts | 57° |
| 2026-05-08 21:01 | 19.45660 | -99.03918 | 9759 ft | 186 kts | 58° |
| 2026-05-08 21:01 | 19.46337 | -99.02708 | 10038 ft | 199 kts | 58° |
| 2026-05-08 21:02 | 19.47074 | -99.01394 | 10252 ft | 214 kts | 59° |
| 2026-05-08 21:02 | 19.47845 | -99.00012 | 10543 ft | 225 kts | 59° |
| 2026-05-08 21:02 | 19.48679 | -98.98525 | 10682 ft | 245 kts | 59° |
| 2026-05-08 21:02 | 19.49591 | -98.96896 | 10810 ft | 268 kts | 59° |
| 2026-05-08 21:03 | 19.50570 | -98.95152 | 11196 ft | 279 kts | 59° |
| 2026-05-08 21:03 | 19.51575 | -98.93359 | 11797 ft | 285 kts | 59° |
| 2026-05-08 21:03 | 19.52728 | -98.91647 | 12418 ft | 287 kts | 43° |
| 2026-05-08 21:03 | 19.54411 | -98.90429 | 12831 ft | 298 kts | 30° |
| 2026-05-08 21:04 | 19.56222 | -98.89361 | 13384 ft | 304 kts | 28° |
| 2026-05-08 21:04 | 19.58063 | -98.88218 | 13920 ft | 305 kts | 33° |
| 2026-05-08 21:04 | 19.59831 | -98.86956 | 14345 ft | 317 kts | 35° |
| 2026-05-08 21:04 | 19.61633 | -98.85568 | 14803 ft | 322 kts | 36° |
| 2026-05-08 21:05 | 19.63444 | -98.84139 | 15320 ft | 328 kts | 36° |
| 2026-05-08 21:05 | 19.65290 | -98.82685 | 15878 ft | 333 kts | 37° |
| 2026-05-08 21:05 | 19.67236 | -98.81344 | 16441 ft | 336 kts | 22° |
| 2026-05-08 21:05 | 19.69500 | -98.80751 | 16988 ft | 338 kts | 5° |
| 2026-05-08 21:06 | 19.71853 | -98.80552 | 17545 ft | 341 kts | 2° |
| 2026-05-08 21:06 | 19.74237 | -98.80427 | 18115 ft | 344 kts | 356° |
| 2026-05-08 21:06 | 19.76564 | -98.80960 | 18648 ft | 344 kts | 334° |
| 2026-05-08 21:06 | 19.78688 | -98.82122 | 19148 ft | 347 kts | 329° |
| 2026-05-08 21:07 | 19.80810 | -98.83391 | 19703 ft | 351 kts | 328° |
| 2026-05-08 21:07 | 19.82947 | -98.84675 | 20263 ft | 354 kts | 328° |
| 2026-05-08 21:07 | 19.85098 | -98.85964 | 20770 ft | 356 kts | 328° |
| 2026-05-08 21:07 | 19.87311 | -98.87174 | 21164 ft | 364 kts | 338° |
| 2026-05-08 21:08 | 19.89814 | -98.87889 | 21301 ft | 380 kts | 346° |
| 2026-05-08 21:08 | 19.91546 | -98.88288 | 21381 ft | 389 kts | 346° |
| 2026-05-08 21:08 | 19.95191 | -98.88675 | 21549 ft | 407 kts | 0° |
| 2026-05-08 21:08 | 19.98071 | -98.88560 | 21679 ft | 420 kts | 1° |
| 2026-05-08 21:09 | 20.01019 | -98.88422 | 21970 ft | 427 kts | 1° |
| 2026-05-08 21:09 | 20.03999 | -98.88270 | 22341 ft | 431 kts | 1° |
| 2026-05-08 21:09 | 20.05992 | -98.88162 | 22602 ft | 434 kts | 1° |
| 2026-05-08 21:09 | 20.10046 | -98.87943 | 23127 ft | 438 kts | 1° |
| 2026-05-08 21:10 | 20.13092 | -98.88062 | 23492 ft | 439 kts | 352° |
| 2026-05-08 21:10 | 20.15107 | -98.88286 | 23731 ft | 440 kts | 352° |
| 2026-05-08 21:10 | 20.18161 | -98.88633 | 24025 ft | 443 kts | 352° |
| 2026-05-08 21:10 | 20.21242 | -98.88987 | 24363 ft | 446 kts | 352° |
| 2026-05-08 21:11 | 20.24340 | -98.89292 | 24715 ft | 449 kts | 356° |
| 2026-05-08 21:11 | 20.27479 | -98.89283 | 25048 ft | 453 kts | 359° |
| 2026-05-08 21:11 | 20.30635 | -98.89240 | 25381 ft | 455 kts | 359° |
| 2026-05-08 21:11 | 20.33803 | -98.89192 | 25722 ft | 457 kts | 359° |
| 2026-05-08 21:12 | 20.36994 | -98.89149 | 26044 ft | 459 kts | 359° |
| 2026-05-08 21:12 | 20.40189 | -98.89108 | 26354 ft | 461 kts | 359° |
| 2026-05-08 21:12 | 20.43413 | -98.89006 | 26659 ft | 464 kts | 4° |
| 2026-05-08 21:12 | 20.46622 | -98.88519 | 26940 ft | 467 kts | 7° |
| 2026-05-08 21:13 | 20.49837 | -98.87961 | 27215 ft | 469 kts | 7° |
| 2026-05-08 21:13 | 20.53063 | -98.87399 | 27496 ft | 470 kts | 7° |
| 2026-05-08 21:13 | 20.56304 | -98.86836 | 27724 ft | 473 kts | 7° |
| 2026-05-08 21:13 | 20.59554 | -98.86275 | 27984 ft | 475 kts | 7° |
| 2026-05-08 21:14 | 20.62818 | -98.85710 | 28243 ft | 476 kts | 7° |
| 2026-05-08 21:14 | 20.66100 | -98.85142 | 28495 ft | 479 kts | 7° |
| 2026-05-08 21:14 | 20.69400 | -98.84567 | 28766 ft | 482 kts | 7° |
| 2026-05-08 21:14 | 20.72666 | -98.83733 | 29043 ft | 485 kts | 20° |
| 2026-05-08 21:15 | 20.75604 | -98.82058 | 29279 ft | 489 kts | 36° |
| 2026-05-08 21:15 | 20.78106 | -98.79593 | 29471 ft | 493 kts | 47° |
| 2026-05-08 21:15 | 20.80404 | -98.76867 | 29713 ft | 494 kts | 48° |
| 2026-05-08 21:15 | 20.82686 | -98.74123 | 29908 ft | 495 kts | 48° |
| 2026-05-08 21:16 | 20.85203 | -98.71620 | 30115 ft | 496 kts | 34° |
| 2026-05-08 21:16 | 20.88237 | -98.69880 | 30319 ft | 494 kts | 18° |
| 2026-05-08 21:16 | 20.91552 | -98.68991 | 30533 ft | 492 kts | 5° |
| 2026-05-08 21:16 | 20.94947 | -98.68553 | 30778 ft | 491 kts | 4° |
| 2026-05-08 21:17 | 20.98334 | -98.68132 | 31068 ft | 490 kts | 4° |
| 2026-05-08 21:17 | 21.01719 | -98.67718 | 31343 ft | 489 kts | 4° |
| 2026-05-08 21:17 | 21.05094 | -98.67303 | 31621 ft | 488 kts | 4° |
| 2026-05-08 21:17 | 21.08465 | -98.66884 | 31868 ft | 487 kts | 4° |
| 2026-05-08 21:18 | 21.11830 | -98.66462 | 32152 ft | 486 kts | 4° |
| 2026-05-08 21:18 | 21.15184 | -98.66040 | 32428 ft | 485 kts | 4° |
| 2026-05-08 21:18 | 21.18531 | -98.65620 | 32717 ft | 483 kts | 4° |
| 2026-05-08 21:18 | 21.21864 | -98.65204 | 32933 ft | 483 kts | 4° |
| 2026-05-08 21:19 | 21.25197 | -98.64789 | 32983 ft | 479 kts | 4° |
| 2026-05-08 21:19 | 21.31785 | -98.63960 | 32962 ft | 476 kts | 4° |
| 2026-05-08 21:20 | 21.38365 | -98.63131 | 32932 ft | 476 kts | 4° |
| 2026-05-08 21:20 | 21.44948 | -98.62304 | 32924 ft | 476 kts | 4° |
| 2026-05-08 21:21 | 21.51532 | -98.61486 | 32911 ft | 476 kts | 3° |
| 2026-05-08 21:21 | 21.58104 | -98.60656 | 32900 ft | 476 kts | 4° |
| 2026-05-08 21:22 | 21.64683 | -98.59823 | 32879 ft | 475 kts | 4° |
| 2026-05-08 21:22 | 21.71252 | -98.58998 | 32862 ft | 475 kts | 4° |
| 2026-05-08 21:23 | 21.77822 | -98.58172 | 32867 ft | 476 kts | 4° |
| 2026-05-08 21:23 | 21.84361 | -98.57343 | 32860 ft | 476 kts | 4° |
| 2026-05-08 21:24 | 21.90940 | -98.56505 | 32843 ft | 475 kts | 4° |
| 2026-05-08 21:24 | 21.97512 | -98.55673 | 32833 ft | 475 kts | 3° |
| 2026-05-08 21:25 | 22.04098 | -98.54849 | 32809 ft | 476 kts | 3° |
| 2026-05-08 21:25 | 22.10670 | -98.54017 | 32809 ft | 476 kts | 3° |
| 2026-05-08 21:26 | 22.17246 | -98.53175 | 32810 ft | 476 kts | 3° |
| 2026-05-08 21:26 | 22.23829 | -98.52336 | 32811 ft | 476 kts | 3° |
| 2026-05-08 21:27 | 22.30407 | -98.51502 | 32812 ft | 476 kts | 3° |
| 2026-05-08 21:27 | 22.36997 | -98.50671 | 32812 ft | 476 kts | 2° |
| 2026-05-08 21:28 | 22.43583 | -98.49844 | 32811 ft | 477 kts | 3° |
| 2026-05-08 21:28 | 22.50173 | -98.49000 | 32814 ft | 477 kts | 3° |
| 2026-05-08 21:29 | 22.56726 | -98.48154 | 32811 ft | 477 kts | 3° |
| 2026-05-08 21:29 | 22.63305 | -98.47311 | 32812 ft | 477 kts | 3° |
| 2026-05-08 21:30 | 22.69899 | -98.46473 | 32812 ft | 477 kts | 3° |
| 2026-05-08 21:30 | 22.76489 | -98.45629 | 32811 ft | 477 kts | 3° |
| 2026-05-08 21:31 | 22.83078 | -98.44782 | 32811 ft | 477 kts | 3° |
| 2026-05-08 21:31 | 22.89668 | -98.43933 | 32813 ft | 477 kts | 2° |
| 2026-05-08 21:32 | 22.96263 | -98.43090 | 32809 ft | 477 kts | 2° |
| 2026-05-08 21:32 | 23.02853 | -98.42248 | 32805 ft | 477 kts | 2° |
| 2026-05-08 21:33 | 23.09445 | -98.41408 | 32803 ft | 477 kts | 2° |
| 2026-05-08 21:33 | 23.16042 | -98.40561 | 32802 ft | 477 kts | 2° |
| 2026-05-08 21:34 | 23.22643 | -98.39710 | 32801 ft | 478 kts | 2° |
| 2026-05-08 21:34 | 23.29217 | -98.38534 | 32797 ft | 483 kts | 13° |
| 2026-05-08 21:35 | 23.35647 | -98.36334 | 32801 ft | 484 kts | 13° |
| 2026-05-08 21:35 | 23.42038 | -98.34150 | 32802 ft | 484 kts | 13° |
| 2026-05-08 21:36 | 23.48471 | -98.31964 | 32803 ft | 485 kts | 13° |
| 2026-05-08 21:36 | 23.54910 | -98.29767 | 32802 ft | 485 kts | 13° |
| 2026-05-08 21:37 | 23.61349 | -98.27556 | 32802 ft | 485 kts | 13° |
| 2026-05-08 21:37 | 23.67796 | -98.25356 | 32800 ft | 485 kts | 13° |
| 2026-05-08 21:38 | 23.74238 | -98.23153 | 32800 ft | 485 kts | 13° |
| 2026-05-08 21:38 | 23.80673 | -98.20940 | 32796 ft | 485 kts | 13° |
| 2026-05-08 21:39 | 23.87110 | -98.18724 | 32795 ft | 485 kts | 13° |
| 2026-05-08 21:39 | 23.93551 | -98.16507 | 32795 ft | 485 kts | 13° |
| 2026-05-08 21:40 | 23.99994 | -98.14290 | 32795 ft | 485 kts | 13° |
| 2026-05-08 21:40 | 24.06430 | -98.12072 | 32797 ft | 485 kts | 13° |
| 2026-05-08 21:41 | 24.16086 | -98.08732 | 32796 ft | 485 kts | 13° |
| 2026-05-08 21:41 | 24.22536 | -98.06551 | 32795 ft | 483 kts | 9° |
| 2026-05-08 21:42 | 24.25828 | -98.05926 | 32670 ft | 480 kts | 0° |
| 2026-05-08 21:42 | 24.29093 | -98.05840 | 32171 ft | 473 kts | 351° |
| 2026-05-08 21:42 | 24.32361 | -98.06172 | 31671 ft | 472 kts | 349° |
| 2026-05-08 21:42 | 24.35650 | -98.06525 | 31170 ft | 477 kts | 349° |
| 2026-05-08 21:43 | 24.38951 | -98.06864 | 30669 ft | 477 kts | 349° |
| 2026-05-08 21:43 | 24.42254 | -98.07193 | 30167 ft | 475 kts | 349° |
| 2026-05-08 21:43 | 24.45535 | -98.07512 | 29666 ft | 472 kts | 349° |
| 2026-05-08 21:43 | 24.48803 | -98.07827 | 29165 ft | 469 kts | 349° |
| 2026-05-08 21:44 | 24.52045 | -98.08142 | 28665 ft | 466 kts | 350° |
| 2026-05-08 21:44 | 24.55262 | -98.08457 | 28167 ft | 462 kts | 350° |
| 2026-05-08 21:44 | 24.58451 | -98.08772 | 27666 ft | 459 kts | 350° |
| 2026-05-08 21:44 | 24.61620 | -98.09089 | 27167 ft | 455 kts | 350° |
| 2026-05-08 21:45 | 24.64751 | -98.09405 | 26676 ft | 451 kts | 350° |
| 2026-05-08 21:45 | 24.67863 | -98.09720 | 26188 ft | 447 kts | 350° |
| 2026-05-08 21:45 | 24.70952 | -98.10034 | 25676 ft | 444 kts | 350° |
| 2026-05-08 21:45 | 24.74024 | -98.10346 | 25178 ft | 441 kts | 350° |
| 2026-05-08 21:46 | 24.77071 | -98.10656 | 24679 ft | 438 kts | 350° |
| 2026-05-08 21:46 | 24.80094 | -98.10960 | 24184 ft | 435 kts | 350° |
| 2026-05-08 21:46 | 24.83097 | -98.11261 | 23723 ft | 432 kts | 351° |
| 2026-05-08 21:46 | 24.86081 | -98.11558 | 23220 ft | 429 kts | 350° |
| 2026-05-08 21:47 | 24.89042 | -98.11855 | 22719 ft | 426 kts | 350° |
| 2026-05-08 21:47 | 24.91983 | -98.12152 | 22220 ft | 423 kts | 351° |
| 2026-05-08 21:47 | 24.94909 | -98.12446 | 21726 ft | 421 kts | 351° |
| 2026-05-08 21:47 | 24.97816 | -98.12733 | 21220 ft | 418 kts | 351° |
| 2026-05-08 21:48 | 25.00669 | -98.13014 | 20727 ft | 416 kts | 351° |
| 2026-05-08 21:48 | 25.02598 | -98.13204 | 20375 ft | 408 kts | 351° |
| 2026-05-08 21:48 | 25.06252 | -98.13560 | 19713 ft | 388 kts | 351° |
| 2026-05-08 21:48 | 25.08895 | -98.13816 | 19214 ft | 375 kts | 351° |
| 2026-05-08 21:49 | 25.11456 | -98.14068 | 18705 ft | 364 kts | 350° |
| 2026-05-08 21:49 | 25.13944 | -98.14318 | 18214 ft | 354 kts | 350° |
| 2026-05-08 21:49 | 25.16358 | -98.14564 | 17712 ft | 344 kts | 350° |
| 2026-05-08 21:49 | 25.18715 | -98.14804 | 17210 ft | 336 kts | 350° |
| 2026-05-08 21:50 | 25.21025 | -98.15042 | 16770 ft | 332 kts | 350° |
| 2026-05-08 21:50 | 25.23319 | -98.15277 | 16376 ft | 332 kts | 350° |
| 2026-05-08 21:50 | 25.25623 | -98.15514 | 15969 ft | 332 kts | 350° |
| 2026-05-08 21:50 | 25.27926 | -98.15748 | 15570 ft | 332 kts | 351° |
| 2026-05-08 21:51 | 25.30223 | -98.15980 | 15170 ft | 332 kts | 351° |
| 2026-05-08 21:51 | 25.32520 | -98.16212 | 14758 ft | 328 kts | 351° |
| 2026-05-08 21:51 | 25.34765 | -98.16433 | 14376 ft | 321 kts | 351° |
| 2026-05-08 21:51 | 25.36979 | -98.16655 | 14000 ft | 318 kts | 351° |
| 2026-05-08 21:52 | 25.39172 | -98.16878 | 13624 ft | 315 kts | 351° |
| 2026-05-08 21:52 | 25.41342 | -98.17100 | 13247 ft | 312 kts | 351° |
| 2026-05-08 21:52 | 25.43492 | -98.17318 | 12871 ft | 308 kts | 352° |
| 2026-05-08 21:52 | 25.45600 | -98.17529 | 12523 ft | 301 kts | 351° |
| 2026-05-08 21:53 | 25.47651 | -98.17736 | 12204 ft | 300 kts | 351° |
| 2026-05-08 21:53 | 25.49720 | -98.17944 | 11877 ft | 298 kts | 351° |
| 2026-05-08 21:53 | 25.51782 | -98.18154 | 11550 ft | 296 kts | 352° |
| 2026-05-08 21:53 | 25.53827 | -98.18362 | 11224 ft | 295 kts | 352° |
| 2026-05-08 21:54 | 25.55862 | -98.18569 | 10895 ft | 293 kts | 352° |
| 2026-05-08 21:54 | 25.57231 | -98.18710 | 10677 ft | 291 kts | 352° |
| 2026-05-08 21:54 | 25.59852 | -98.18976 | 10253 ft | 289 kts | 352° |
| 2026-05-08 21:54 | 25.61849 | -98.19181 | 9923 ft | 287 kts | 353° |
| 2026-05-08 21:55 | 25.63834 | -98.19387 | 9595 ft | 285 kts | 353° |
| 2026-05-08 21:55 | 25.65804 | -98.19592 | 9273 ft | 283 kts | 353° |
| 2026-05-08 21:55 | 25.67758 | -98.19792 | 8953 ft | 281 kts | 353° |
| 2026-05-08 21:56 | 25.71631 | -98.20186 | 8290 ft | 277 kts | 354° |
| 2026-05-08 21:56 | 25.73542 | -98.20380 | 7966 ft | 275 kts | 354° |
| 2026-05-08 21:56 | 25.75436 | -98.20572 | 7640 ft | 273 kts | 354° |
| 2026-05-08 21:56 | 25.76658 | -98.20693 | 7423 ft | 271 kts | 354° |
| 2026-05-08 21:57 | 25.78529 | -98.20879 | 7101 ft | 267 kts | 354° |
| 2026-05-08 21:57 | 25.80373 | -98.21067 | 6770 ft | 265 kts | 354° |
| 2026-05-08 21:57 | 25.82204 | -98.21256 | 6444 ft | 264 kts | 355° |
| 2026-05-08 21:57 | 25.84023 | -98.21443 | 6123 ft | 261 kts | 355° |
| 2026-05-08 21:58 | 25.85822 | -98.21627 | 5796 ft | 258 kts | 355° |
| 2026-05-08 21:58 | 25.87603 | -98.21806 | 5470 ft | 256 kts | 355° |
| 2026-05-08 21:58 | 25.89366 | -98.21984 | 5142 ft | 254 kts | 355° |
| 2026-05-08 21:58 | 25.91114 | -98.22161 | 4820 ft | 251 kts | 355° |
| 2026-05-08 21:59 | 25.92843 | -98.22338 | 4492 ft | 249 kts | 355° |
| 2026-05-08 21:59 | 25.94566 | -98.22516 | 4166 ft | 247 kts | 355° |
| 2026-05-08 21:59 | 25.96269 | -98.22689 | 3838 ft | 245 kts | 355° |
| 2026-05-08 21:59 | 25.97944 | -98.22863 | 3520 ft | 244 kts | 354° |
| 2026-05-08 22:00 | 25.99556 | -98.23313 | 3308 ft | 236 kts | 336° |
| 2026-05-08 22:00 | 26.00943 | -98.24224 | 3107 ft | 229 kts | 319° |
| 2026-05-08 22:00 | 26.02014 | -98.25495 | 2908 ft | 224 kts | 302° |
| 2026-05-08 22:00 | 26.02752 | -98.27004 | 2707 ft | 222 kts | 294° |
| 2026-05-08 22:01 | 26.03205 | -98.28048 | 2571 ft | 221 kts | 295° |
| 2026-05-08 22:01 | 26.03876 | -98.29574 | 2374 ft | 217 kts | 295° |
| 2026-05-08 22:01 | 26.04743 | -98.31540 | 2146 ft | 210 kts | 296° |
| 2026-05-08 22:01 | 26.05382 | -98.32989 | 1968 ft | 208 kts | 296° |
| 2026-05-08 22:02 | 26.06009 | -98.34406 | 1867 ft | 201 kts | 297° |
| 2026-05-08 22:02 | 26.06621 | -98.35787 | 1759 ft | 198 kts | 297° |
| 2026-05-08 22:02 | 26.07038 | -98.36707 | 1678 ft | 197 kts | 301° |
| 2026-05-08 22:02 | 26.07937 | -98.37784 | 1584 ft | 192 kts | 329° |
| 2026-05-08 22:03 | 26.09166 | -98.38307 | 1516 ft | 191 kts | 354° |
| 2026-05-08 22:03 | 26.10475 | -98.38192 | 1510 ft | 190 kts | 19° |
| 2026-05-08 22:03 | 26.11573 | -98.37497 | 1509 ft | 178 kts | 44° |
| 2026-05-08 22:03 | 26.12286 | -98.36411 | 1511 ft | 173 kts | 68° |
| 2026-05-08 22:04 | 26.12547 | -98.35124 | 1516 ft | 171 kts | 91° |
| 2026-05-08 22:04 | 26.12339 | -98.33842 | 1516 ft | 169 kts | 112° |
| 2026-05-08 22:04 | 26.11703 | -98.32757 | 1513 ft | 169 kts | 135° |
| 2026-05-08 22:04 | 26.10822 | -98.31953 | 1528 ft | 154 kts | 141° |
| 2026-05-08 22:05 | 26.10004 | -98.31229 | 1531 ft | 147 kts | 141° |
| 2026-05-08 22:05 | 26.09209 | -98.30525 | 1525 ft | 145 kts | 141° |
| 2026-05-08 22:05 | 26.08425 | -98.29829 | 1489 ft | 144 kts | 140° |
| 2026-05-08 22:05 | 26.07644 | -98.29131 | 1383 ft | 144 kts | 139° |
| 2026-05-08 22:06 | 26.06870 | -98.28416 | 1258 ft | 144 kts | 134° |
| 2026-05-08 22:06 | 26.06129 | -98.27655 | 1175 ft | 146 kts | 135° |
| 2026-05-08 22:06 | 26.05359 | -98.26917 | 1080 ft | 147 kts | 136° |
| 2026-05-08 22:06 | 26.04580 | -98.26182 | 955 ft | 147 kts | 137° |
| 2026-05-08 22:07 | 26.03789 | -98.25466 | 787 ft | 147 kts | 138° |
| 2026-05-08 22:07 | 26.03001 | -98.24756 | 592 ft | 144 kts | 137° |
| 2026-05-08 22:07 | 26.02224 | -98.24050 | 369 ft | 144 kts | 138° |
| 2026-05-08 22:07 | 26.01447 | -98.23350 | 163 ft | 141 kts | 140° |
| 2026-05-08 22:08 | 26.00774 | -98.22744 | 147 ft | 102 kts | 141° |
| 2026-05-08 22:08 | 26.00369 | -98.22380 | 148 ft | 48 kts | 141° |
| 2026-05-08 22:08 | 26.00219 | -98.22268 | 147 ft | 11 kts | 160° |
| 2026-05-08 22:08 | 26.00222 | -98.22240 | 147 ft | 5 kts | 356° |
| 2026-05-08 22:09 | 26.00263 | -98.22278 | 147 ft | 10 kts | 319° |
| 2026-05-08 22:09 | 26.00330 | -98.22338 | 148 ft | 15 kts | 321° |
| 2026-05-08 22:09 | 26.00418 | -98.22420 | 149 ft | 19 kts | 320° |
| 2026-05-08 22:09 | 26.00524 | -98.22520 | 148 ft | 20 kts | 320° |
| 2026-05-08 22:10 | 26.00632 | -98.22617 | 149 ft | 20 kts | 326° |
| 2026-05-08 22:10 | 26.00768 | -98.22640 | 148 ft | 15 kts | 6° |
| 2026-05-08 22:10 | 26.00876 | -98.22627 | 148 ft | 14 kts | 6° |
| 2026-05-08 22:10 | 26.00962 | -98.22667 | 148 ft | 11 kts | 324° |
| 2026-05-08 22:11 | 26.01023 | -98.22707 | 148 ft | 9 kts | 323° |
| 2026-05-08 22:11 | 26.01065 | -98.22755 | 148 ft | 8 kts | 308° |
| 2026-05-08 22:11 | 26.01102 | -98.22792 | 148 ft | 6 kts | 347° |
| 2026-05-08 22:11 | 26.01129 | -98.22769 | 148 ft | 4 kts | 51° |
| 2026-05-08 22:12 | 26.01137 | -98.22758 | 148 ft | 0 kts | 51° |